createdAt,value
2022-12-24T00:05:08.963Z,11.50
2022-12-24T00:12:09.325Z,11.40
2022-12-24T00:19:09.813Z,11.40
2022-12-24T00:26:10.455Z,11.30
2022-12-24T00:33:10.835Z,11.20
2022-12-24T00:40:11.238Z,11.10
2022-12-24T00:47:12.272Z,11.10
2022-12-24T00:54:14.521Z,11.10
2022-12-24T01:01:15.259Z,11.10
2022-12-24T01:08:15.360Z,11.00
2022-12-24T01:15:15.935Z,11.00
2022-12-24T01:22:16.074Z,11.00
2022-12-24T01:29:17.490Z,11.00
2022-12-24T01:36:17.717Z,10.90
2022-12-24T01:43:28.291Z,11.00
2022-12-24T01:50:29.041Z,11.00
2022-12-24T01:57:53.113Z,11.00
2022-12-24T02:05:03.508Z,11.00
2022-12-24T02:12:06.519Z,11.00
2022-12-24T02:19:34.823Z,11.00
2022-12-24T02:26:56.993Z,10.90
2022-12-24T02:34:15.485Z,10.80
2022-12-24T02:41:24.519Z,10.80
2022-12-24T02:48:26.346Z,10.80
2022-12-24T02:55:44.594Z,10.70
2022-12-24T03:03:11.296Z,10.70
2022-12-24T03:10:20.502Z,10.80
2022-12-24T03:17:21.811Z,10.80
2022-12-24T03:24:22.061Z,10.90
2022-12-24T03:31:23.053Z,10.80
2022-12-24T03:38:23.416Z,10.90
2022-12-24T03:45:23.968Z,10.90
2022-12-24T03:52:24.687Z,10.80
2022-12-24T03:59:24.837Z,10.70
2022-12-24T04:06:25.152Z,10.70
2022-12-24T04:13:25.543Z,10.70
2022-12-24T04:20:25.915Z,10.60
2022-12-24T04:27:30.423Z,10.60
2022-12-24T04:34:31.064Z,10.60
2022-12-24T04:41:32.150Z,10.60
2022-12-24T04:48:32.635Z,10.60
2022-12-24T04:55:32.855Z,10.60
2022-12-24T05:02:33.779Z,10.60
2022-12-24T05:09:34.383Z,10.50
2022-12-24T05:16:34.874Z,10.50
2022-12-24T05:23:53.965Z,10.50
2022-12-24T05:30:54.578Z,10.50
2022-12-24T05:37:58.385Z,10.50
2022-12-24T05:44:58.766Z,10.50
2022-12-24T05:51:59.178Z,10.50
2022-12-24T05:58:59.669Z,10.50
2022-12-24T06:06:02.653Z,10.50
2022-12-24T06:13:03.116Z,10.50
2022-12-24T06:20:04.205Z,10.50
2022-12-24T06:27:04.641Z,10.50
2022-12-24T06:34:04.906Z,10.40
2022-12-24T06:41:06.981Z,10.40
2022-12-24T06:48:07.279Z,10.40
2022-12-24T06:55:08.221Z,10.40
2022-12-24T07:02:09.773Z,10.30
2022-12-24T07:09:13.360Z,10.30
2022-12-24T07:16:13.579Z,10.40
2022-12-24T07:23:13.946Z,10.40
2022-12-24T07:30:14.376Z,10.50
2022-12-24T07:37:14.751Z,10.60
2022-12-24T07:44:15.450Z,10.90
2022-12-24T07:51:15.625Z,10.80
2022-12-24T07:58:16.341Z,10.70
2022-12-24T08:05:16.847Z,10.70
2022-12-24T08:12:17.219Z,10.70
2022-12-24T08:19:17.729Z,10.60
2022-12-24T08:26:18.127Z,10.60
2022-12-24T08:33:19.390Z,10.70
2022-12-24T08:40:19.770Z,10.70
2022-12-24T08:47:20.040Z,10.70
2022-12-24T08:54:22.383Z,10.70
2022-12-24T09:01:22.842Z,10.70
2022-12-24T09:08:23.352Z,10.60
2022-12-24T09:15:23.790Z,10.70
2022-12-24T09:22:24.166Z,10.70
2022-12-24T09:29:24.735Z,10.80
2022-12-24T09:36:24.952Z,10.80
2022-12-24T09:43:29.907Z,10.80
2022-12-24T09:50:41.411Z,10.80
2022-12-24T09:57:43.327Z,10.80
2022-12-24T10:04:45.178Z,10.90
2022-12-24T10:12:32.048Z,10.90
2022-12-24T10:19:55.393Z,10.90
2022-12-24T10:27:14.925Z,11.00
2022-12-24T10:34:24.032Z,11.10
2022-12-24T10:41:27.209Z,11.20
2022-12-24T10:48:57.650Z,11.20
2022-12-24T10:56:10.584Z,11.30
2022-12-24T11:03:13.902Z,11.30
2022-12-24T11:10:23.799Z,11.40
2022-12-24T11:17:24.436Z,11.40
2022-12-24T11:24:28.511Z,11.40
2022-12-24T11:31:29.195Z,11.50
2022-12-24T11:38:31.802Z,11.50
2022-12-24T11:45:33.923Z,11.60
2022-12-24T11:52:34.353Z,11.80
2022-12-24T11:59:34.609Z,11.90
2022-12-24T12:06:44.629Z,11.90
2022-12-24T12:13:46.615Z,12.00
2022-12-24T12:21:00.661Z,12.00
2022-12-24T12:28:03.495Z,12.00
2022-12-24T12:35:16.038Z,12.00
2022-12-24T12:42:34.803Z,12.10
2022-12-24T12:49:38.457Z,12.10
2022-12-24T12:56:44.566Z,12.20
2022-12-24T13:04:10.478Z,12.20
2022-12-24T13:11:45.723Z,12.10
2022-12-24T13:18:58.375Z,12.00
2022-12-24T13:25:59.229Z,12.00
2022-12-24T13:32:59.530Z,12.10
2022-12-24T13:40:06.047Z,12.10
2022-12-24T13:47:30.185Z,12.10
2022-12-24T13:54:32.695Z,12.00
2022-12-24T14:01:37.855Z,12.10
2022-12-24T14:08:42.977Z,12.20
2022-12-24T14:15:49.777Z,12.20
2022-12-24T14:22:50.572Z,12.20
2022-12-24T14:30:02.345Z,12.10
2022-12-24T14:37:04.529Z,12.10
2022-12-24T14:44:40.355Z,12.00
2022-12-24T14:52:45.829Z,11.90
2022-12-24T14:59:57.867Z,11.80
2022-12-24T15:06:59.357Z,11.60
2022-12-24T15:14:00.470Z,11.50
2022-12-24T15:21:05.186Z,11.40
2022-12-24T15:28:17.275Z,11.30
2022-12-24T15:35:34.822Z,11.20
2022-12-24T15:42:40.887Z,11.20
2022-12-24T15:49:47.157Z,11.10
2022-12-24T15:56:48.527Z,10.90
2022-12-24T16:03:48.926Z,10.90
2022-12-24T16:10:53.179Z,10.80
2022-12-24T16:17:53.484Z,10.80
2022-12-24T16:24:55.439Z,10.80
2022-12-24T16:31:57.448Z,10.80
2022-12-24T16:39:17.413Z,10.80
2022-12-24T16:46:18.309Z,10.70
2022-12-24T16:53:20.743Z,10.60
2022-12-24T17:00:22.806Z,10.10
2022-12-24T17:07:23.002Z,10.40
2022-12-24T17:14:23.218Z,10.30
2022-12-24T17:21:24.431Z,10.20
2022-12-24T17:28:24.965Z,10.10
2022-12-24T17:35:25.135Z,9.90
2022-12-24T17:42:25.486Z,9.70
2022-12-24T17:49:26.009Z,9.60
2022-12-24T17:56:28.101Z,9.60
2022-12-24T18:03:28.823Z,9.50
2022-12-24T18:10:30.057Z,9.40
2022-12-24T18:17:30.564Z,9.20
2022-12-24T18:24:30.916Z,9.10
2022-12-24T18:31:33.462Z,9.00
2022-12-24T18:38:34.344Z,9.00
2022-12-24T18:45:34.597Z,8.90
2022-12-24T18:52:35.057Z,8.80
2022-12-24T18:59:38.997Z,8.70
2022-12-24T19:06:39.428Z,8.80
2022-12-24T19:13:39.777Z,8.80
2022-12-24T19:20:40.594Z,8.80
2022-12-24T19:27:40.762Z,8.80
2022-12-24T19:34:41.261Z,8.80
2022-12-24T19:41:41.654Z,8.80
2022-12-24T19:48:43.254Z,8.70
2022-12-24T19:55:46.445Z,8.70
2022-12-24T20:02:46.897Z,8.70
2022-12-24T20:09:47.706Z,8.70
2022-12-24T20:16:47.884Z,8.60
2022-12-24T20:23:48.692Z,8.60
2022-12-24T20:30:48.959Z,8.60
2022-12-24T20:37:49.995Z,8.60
2022-12-24T20:44:50.239Z,8.50
2022-12-24T20:51:50.567Z,8.50
2022-12-24T20:58:51.556Z,8.50
2022-12-24T21:05:52.054Z,8.40
2022-12-24T21:12:56.863Z,8.40
2022-12-24T21:20:00.371Z,8.40
2022-12-24T21:27:00.536Z,8.30
2022-12-24T21:34:03.425Z,8.30
2022-12-24T21:41:10.653Z,8.20
2022-12-24T21:48:31.006Z,8.20
2022-12-24T21:55:31.214Z,8.30
2022-12-24T22:02:31.936Z,8.30
2022-12-24T22:09:50.929Z,8.40
2022-12-24T22:16:51.236Z,8.40
2022-12-24T22:23:51.683Z,8.50
2022-12-24T22:30:52.223Z,8.50
2022-12-24T22:37:56.025Z,8.50
2022-12-24T22:45:01.073Z,8.50
2022-12-24T22:52:01.512Z,8.50
2022-12-24T22:59:03.679Z,8.50
2022-12-24T23:06:06.746Z,8.40
2022-12-24T23:13:26.180Z,8.40
2022-12-24T23:20:26.653Z,8.30
2022-12-24T23:27:27.083Z,8.30
2022-12-24T23:34:27.440Z,8.20
2022-12-24T23:41:27.943Z,8.10
2022-12-24T23:48:28.640Z,8.10
2022-12-24T23:55:29.095Z,8.00
